Time,TemperatureF,DewpointF,PressureIn,WindDirection,WindDirectionDegrees,WindSpeedMPH,WindSpeedGustMPH,Humidity,HourlyPrecipIn,Conditions,Clouds,dailyrainin,SoftwareType,DateUTC
2013-02-13 00:02:00,25.0,23.0,-100.00,West,280,6.0,7.0,95,0.00,,,0.00,,2013-02-13 06:02:00,
2013-02-13 00:11:00,25.0,23.0,-100.00,West,280,6.0,7.0,95,0.00,,,0.00,,2013-02-13 06:11:00,
2013-02-13 00:21:00,25.0,23.0,-100.00,WNW,285,6.0,7.0,95,0.00,,,0.00,,2013-02-13 06:21:00,
2013-02-13 00:32:00,25.0,23.0,-100.00,West,275,5.0,7.0,95,0.00,,,0.00,,2013-02-13 06:32:00,
2013-02-13 00:42:00,25.0,25.0,-100.00,West,260,4.0,6.0,95,0.00,,,0.00,,2013-02-13 06:42:00,
2013-02-13 00:51:00,25.0,23.0,-100.00,WSW,250,4.0,6.0,94,0.00,,,0.00,,2013-02-13 06:51:00,
2013-02-13 01:02:00,25.0,23.0,-100.00,WSW,240,4.0,6.0,95,0.00,,,0.00,,2013-02-13 07:02:00,
2013-02-13 01:11:00,25.0,25.0,-100.00,SW,235,4.0,5.0,95,0.00,,,0.00,,2013-02-13 07:11:00,
2013-02-13 01:21:00,25.0,23.0,-100.00,WSW,240,4.0,5.0,95,0.00,,,0.00,,2013-02-13 07:21:00,
2013-02-13 01:31:00,25.0,23.0,-100.00,SW,235,4.0,4.0,94,0.00,,,0.00,,2013-02-13 07:31:00,
2013-02-13 01:41:00,25.0,23.0,-100.00,WSW,240,4.0,5.0,95,0.00,,,0.00,,2013-02-13 07:41:00,
2013-02-13 01:51:00,24.0,23.0,-100.00,WSW,250,3.0,4.0,95,0.00,,,0.00,,2013-02-13 07:51:00,
2013-02-13 02:01:00,25.0,23.0,-100.00,SW,235,4.0,6.0,94,0.00,,,0.00,,2013-02-13 08:01:00,
2013-02-13 02:11:00,24.0,23.0,-100.00,SW,225,4.0,6.0,96,0.00,,,0.00,,2013-02-13 08:11:00,
2013-02-13 02:21:00,24.0,23.0,-100.00,SW,225,4.0,6.0,95,0.00,,,0.00,,2013-02-13 08:21:00,
2013-02-13 02:32:00,24.0,23.0,-100.00,SSW,210,6.0,7.0,96,0.00,,,0.00,,2013-02-13 08:32:00,
2013-02-13 02:43:00,24.0,23.0,-100.00,SSW,210,4.0,6.0,94,0.00,,,0.00,,2013-02-13 08:43:00,
2013-02-13 02:52:00,24.0,23.0,-100.00,SSW,210,5.0,6.0,95,0.00,,,0.00,,2013-02-13 08:52:00,
2013-02-13 03:01:00,24.0,23.0,-100.00,SW,230,5.0,6.0,95,0.00,,,0.00,,2013-02-13 09:01:00,
2013-02-13 03:11:00,23.0,23.0,-100.00,SW,215,4.0,6.0,96,0.00,,,0.00,,2013-02-13 09:11:00,
2013-02-13 03:21:00,23.0,23.0,-100.00,SSW,210,5.0,6.0,97,0.00,,,0.00,,2013-02-13 09:21:00,
2013-02-13 03:31:00,24.0,23.0,-100.00,SSW,210,6.0,6.0,97,0.00,,,0.00,,2013-02-13 09:31:00,
2013-02-13 03:41:00,23.0,23.0,-100.00,SW,220,6.0,6.0,96,0.00,,,0.00,,2013-02-13 09:41:00,
2013-02-13 03:51:00,23.0,23.0,-100.00,SW,230,4.0,7.0,96,0.00,,,0.00,,2013-02-13 09:51:00,
2013-02-13 04:01:00,23.0,23.0,-100.00,SW,220,6.0,7.0,97,0.00,,,0.00,,2013-02-13 10:01:00,
2013-02-13 04:11:00,23.0,23.0,-100.00,SSW,210,5.0,6.0,97,0.00,,,0.00,,2013-02-13 10:11:00,
2013-02-13 04:21:00,23.0,23.0,-100.00,SW,215,4.0,7.0,96,0.00,,,0.00,,2013-02-13 10:21:00,
2013-02-13 04:32:00,23.0,23.0,-100.00,SW,220,4.0,6.0,95,0.00,,,0.00,,2013-02-13 10:32:00,
2013-02-13 04:41:00,23.0,23.0,-100.00,SW,215,4.0,7.0,96,0.00,,,0.00,,2013-02-13 10:41:00,
2013-02-13 04:51:00,23.0,23.0,-100.00,SW,230,4.0,6.0,95,0.00,,,0.00,,2013-02-13 10:51:00,
2013-02-13 05:01:00,23.0,23.0,-100.00,SW,225,4.0,5.0,96,0.00,,,0.00,,2013-02-13 11:01:00,
2013-02-13 05:11:00,24.0,23.0,-100.00,SW,225,4.0,6.0,97,0.00,,,0.00,,2013-02-13 11:11:00,
2013-02-13 05:22:00,24.0,23.0,-100.00,SW,220,5.0,6.0,97,0.00,,,0.00,,2013-02-13 11:22:00,
2013-02-13 05:32:00,24.0,23.0,-100.00,SSW,205,5.0,6.0,96,0.00,,,0.00,,2013-02-13 11:32:00,
2013-02-13 05:42:00,24.0,23.0,-100.00,SW,220,6.0,7.0,96,0.00,,,0.00,,2013-02-13 11:42:00,
2013-02-13 05:52:00,24.0,23.0,-100.00,WSW,240,4.0,6.0,95,0.00,,,0.00,,2013-02-13 11:52:00,
2013-02-13 06:02:00,24.0,23.0,-100.00,SW,225,3.0,4.0,95,0.00,,,0.00,,2013-02-13 12:02:00,
2013-02-13 06:11:00,24.0,23.0,-100.00,SW,235,2.0,4.0,95,0.00,,,0.00,,2013-02-13 12:11:00,
2013-02-13 06:21:00,24.0,23.0,-100.00,SW,220,2.0,3.0,96,0.00,,,0.00,,2013-02-13 12:21:00,
2013-02-13 06:32:00,24.0,23.0,-100.00,SW,230,2.0,4.0,96,0.00,,,0.00,,2013-02-13 12:32:00,
2013-02-13 06:42:00,24.0,23.0,-100.00,SSW,200,1.0,2.0,96,0.00,,,0.00,,2013-02-13 12:42:00,
2013-02-13 06:52:00,24.0,23.0,-100.00,SSW,200,3.0,4.0,97,0.00,,,0.00,,2013-02-13 12:52:00,
2013-02-13 07:02:00,23.0,23.0,-100.00,SSW,210,4.0,4.0,98,0.00,,,0.00,,2013-02-13 13:02:00,
2013-02-13 07:11:00,23.0,23.0,-100.00,South,175,2.0,4.0,98,0.00,,,0.00,,2013-02-13 13:11:00,
2013-02-13 07:21:00,23.0,23.0,-100.00,SW,225,4.0,5.0,98,0.00,,,0.00,,2013-02-13 13:21:00,
2013-02-13 07:32:00,24.0,23.0,-100.00,SW,220,5.0,6.0,98,0.00,,,0.00,,2013-02-13 13:32:00,
2013-02-13 07:41:00,24.0,23.0,-100.00,SSW,195,5.0,6.0,98,0.00,,,0.00,,2013-02-13 13:41:00,
2013-02-13 07:51:00,24.0,23.0,-100.00,SSE,160,4.0,5.0,98,0.00,,,0.00,,2013-02-13 13:51:00,
2013-02-13 08:01:00,24.0,23.0,-100.00,South,190,5.0,6.0,98,0.00,,,0.00,,2013-02-13 14:01:00,
2013-02-13 08:31:00,25.0,25.0,-100.00,SSE,165,3.0,4.0,98,0.00,,,0.00,,2013-02-13 14:31:00,
2013-02-13 08:41:00,26.0,25.0,-100.00,South,175,5.0,6.0,98,0.00,,,0.00,,2013-02-13 14:41:00,
2013-02-13 08:52:00,27.0,27.0,-100.00,South,175,5.0,7.0,97,0.00,,,0.00,,2013-02-13 14:52:00,
2013-02-13 09:01:00,27.0,27.0,-100.00,South,170,6.0,7.0,97,0.00,,,0.00,,2013-02-13 15:01:00,
2013-02-13 09:11:00,27.0,27.0,-100.00,South,185,6.0,7.0,97,0.00,,,0.00,,2013-02-13 15:11:00,
2013-02-13 09:21:00,28.0,27.0,-100.00,South,190,4.0,7.0,96,0.00,,,0.00,,2013-02-13 15:21:00,
2013-02-13 09:32:00,29.0,28.0,-100.00,SSW,205,7.0,9.0,94,0.00,,,0.00,,2013-02-13 15:32:00,
2013-02-13 09:42:00,29.0,28.0,-100.00,South,185,7.0,10.0,96,0.00,,,0.00,,2013-02-13 15:42:00,
2013-02-13 09:51:00,30.0,28.0,-100.00,South,190,6.0,9.0,95,0.00,,,0.00,,2013-02-13 15:51:00,
2013-02-13 10:01:00,31.0,28.0,-100.00,South,185,7.0,9.0,94,0.00,,,0.00,,2013-02-13 16:01:00,
2013-02-13 10:11:00,32.0,30.0,-100.00,SSW,205,9.0,12.0,92,0.00,,,0.00,,2013-02-13 16:11:00,
2013-02-13 10:21:00,32.0,30.0,-100.00,SSW,195,9.0,12.0,93,0.00,,,0.00,,2013-02-13 16:21:00,
2013-02-13 10:31:00,33.0,30.0,-100.00,SSW,205,10.0,12.0,92,0.00,,,0.00,,2013-02-13 16:31:00,
2013-02-13 10:42:00,34.0,30.0,-100.00,SSW,195,7.0,11.0,89,0.00,,,0.00,,2013-02-13 16:42:00,
2013-02-13 10:51:00,34.0,30.0,-100.00,SSW,205,9.0,11.0,87,0.00,,,0.00,,2013-02-13 16:51:00,
2013-02-13 11:01:00,35.0,30.0,-100.00,SW,215,9.0,12.0,85,0.00,,,0.00,,2013-02-13 17:01:00,
2013-02-13 11:11:00,35.0,32.0,-100.00,SW,215,9.0,12.0,86,0.00,,,0.00,,2013-02-13 17:11:00,
2013-02-13 11:21:00,35.0,30.0,-100.00,SSW,210,11.0,13.0,85,0.00,,,0.00,,2013-02-13 17:21:00,
2013-02-13 11:31:00,35.0,30.0,-100.00,SSW,205,10.0,14.0,84,0.00,,,0.00,,2013-02-13 17:31:00,
2013-02-13 11:41:00,36.0,34.0,-100.00,South,190,9.0,12.0,88,0.00,,,0.00,,2013-02-13 17:41:00,
2013-02-13 11:52:00,36.0,32.0,-100.00,SSW,200,11.0,13.0,85,0.00,,,0.00,,2013-02-13 17:52:00,
2013-02-13 12:01:00,37.0,34.0,-100.00,SSW,205,8.0,13.0,86,0.00,,,0.00,,2013-02-13 18:01:00,
2013-02-13 12:11:00,37.0,34.0,-100.00,SSW,205,9.0,12.0,84,0.00,,,0.00,,2013-02-13 18:11:00,
2013-02-13 12:22:00,38.0,34.0,-100.00,SSW,195,9.0,12.0,86,0.00,,,0.00,,2013-02-13 18:22:00,
2013-02-13 12:32:00,39.0,34.0,-100.00,South,190,8.0,13.0,80,0.00,,,0.00,,2013-02-13 18:32:00,
2013-02-13 12:41:00,39.0,34.0,-100.00,South,185,9.0,12.0,81,0.00,,,0.00,,2013-02-13 18:41:00,
2013-02-13 12:52:00,40.0,34.0,-100.00,South,190,9.0,12.0,82,0.00,,,0.00,,2013-02-13 18:52:00,
2013-02-13 13:01:00,40.0,36.0,-100.00,South,190,8.0,12.0,79,0.00,,,0.00,,2013-02-13 19:01:00,
2013-02-13 13:11:00,41.0,36.0,-100.00,SSW,200,9.0,12.0,81,0.00,,,0.00,,2013-02-13 19:11:00,
2013-02-13 13:21:00,41.0,34.0,-100.00,SSW,205,10.0,14.0,76,0.00,,,0.00,,2013-02-13 19:21:00,
2013-02-13 13:31:00,41.0,34.0,-100.00,SSW,205,10.0,13.0,77,0.00,,,0.00,,2013-02-13 19:31:00,
2013-02-13 13:41:00,42.0,36.0,-100.00,SSW,210,10.0,12.0,76,0.00,,,0.00,,2013-02-13 19:41:00,
2013-02-13 13:51:00,43.0,36.0,-100.00,SSW,205,12.0,15.0,74,0.00,,,0.00,,2013-02-13 19:51:00,
2013-02-13 14:02:00,43.0,34.0,-100.00,SSW,205,16.0,20.0,71,0.00,,,0.00,,2013-02-13 20:02:00,
2013-02-13 14:11:00,43.0,36.0,-100.00,SW,220,11.0,16.0,73,0.00,,,0.00,,2013-02-13 20:11:00,
2013-02-13 14:21:00,42.0,36.0,-100.00,SW,215,12.0,17.0,75,0.00,,,0.00,,2013-02-13 20:21:00,
2013-02-13 14:31:00,43.0,37.0,-100.00,SSW,205,9.0,15.0,79,0.00,,,0.00,,2013-02-13 20:31:00,
2013-02-13 14:41:00,43.0,37.0,-100.00,SSW,205,11.0,17.0,78,0.00,,,0.00,,2013-02-13 20:41:00,
2013-02-13 14:52:00,44.0,37.0,-100.00,SSW,205,13.0,17.0,77,0.00,,,0.00,,2013-02-13 20:52:00,
2013-02-13 15:01:00,44.0,37.0,-100.00,SSW,205,10.0,17.0,80,0.00,,,0.00,,2013-02-13 21:01:00,
2013-02-13 15:11:00,44.0,37.0,-100.00,SSW,200,11.0,15.0,76,0.00,,,0.00,,2013-02-13 21:11:00,
2013-02-13 15:21:00,43.0,37.0,-100.00,SSW,200,11.0,14.0,79,0.00,,,0.00,,2013-02-13 21:21:00,
2013-02-13 15:31:00,44.0,37.0,-100.00,SSW,195,11.0,14.0,79,0.00,,,0.00,,2013-02-13 21:31:00,
2013-02-13 15:42:00,44.0,37.0,-100.00,SSW,195,10.0,15.0,81,0.00,,,0.00,,2013-02-13 21:42:00,
2013-02-13 15:52:00,43.0,37.0,-100.00,SSW,205,10.0,15.0,80,0.00,,,0.00,,2013-02-13 21:52:00,
2013-02-13 16:02:00,43.0,36.0,-100.00,SSW,205,11.0,15.0,78,0.00,,,0.00,,2013-02-13 22:02:00,
2013-02-13 16:11:00,42.0,37.0,-100.00,SSW,205,8.0,12.0,83,0.00,,,0.00,,2013-02-13 22:11:00,
2013-02-13 16:21:00,42.0,37.0,-100.00,SSW,200,7.0,11.0,85,0.00,,,0.00,,2013-02-13 22:21:00,
2013-02-13 16:31:00,41.0,37.0,-100.00,SSW,200,8.0,11.0,85,0.00,,,0.00,,2013-02-13 22:31:00,
2013-02-13 16:42:00,41.0,37.0,-100.00,South,190,9.0,10.0,85,0.00,,,0.00,,2013-02-13 22:42:00,
2013-02-13 16:51:00,41.0,37.0,-100.00,South,190,6.0,10.0,89,0.00,,,0.00,,2013-02-13 22:51:00,
2013-02-13 17:01:00,40.0,37.0,-100.00,South,175,6.0,8.0,90,0.00,,,0.00,,2013-02-13 23:01:00,
2013-02-13 17:11:00,40.0,37.0,-100.00,South,180,6.0,9.0,90,0.00,,,0.00,,2013-02-13 23:11:00,
2013-02-13 17:21:00,40.0,37.0,-100.00,South,170,7.0,9.0,91,0.00,,,0.00,,2013-02-13 23:21:00,
2013-02-13 17:32:00,40.0,37.0,-100.00,SSE,165,6.0,9.0,89,0.00,,,0.00,,2013-02-13 23:32:00,
2013-02-13 17:41:00,39.0,37.0,-100.00,South,185,9.0,10.0,93,0.00,,,0.00,,2013-02-13 23:41:00,
2013-02-13 17:52:00,39.0,37.0,-100.00,SSW,205,9.0,11.0,94,0.00,,,0.00,,2013-02-13 23:52:00,
2013-02-13 18:02:00,40.0,37.0,-100.00,SSW,205,11.0,13.0,91,0.00,,,0.00,,2013-02-14 00:02:00,
2013-02-13 18:11:00,40.0,37.0,-100.00,SW,215,7.0,12.0,90,0.00,,,0.00,,2013-02-14 00:11:00,
2013-02-13 18:21:00,39.0,37.0,-100.00,SW,215,7.0,11.0,91,0.00,,,0.00,,2013-02-14 00:21:00,
2013-02-13 18:32:00,40.0,36.0,-100.00,SW,230,13.0,19.0,85,0.00,,,0.00,,2013-02-14 00:32:00,
2013-02-13 18:42:00,39.0,36.0,-100.00,WSW,250,15.0,26.0,88,0.00,,,0.00,,2013-02-14 00:42:00,
2013-02-13 18:51:00,39.0,37.0,-100.00,WSW,240,12.0,21.0,92,0.00,,,0.00,,2013-02-14 00:51:00,
2013-02-13 19:01:00,38.0,37.0,-100.00,SW,225,9.0,16.0,94,0.00,,,0.00,,2013-02-14 01:01:00,
2013-02-13 19:11:00,38.0,37.0,-100.00,SW,225,8.0,14.0,96,0.00,,,0.00,,2013-02-14 01:11:00,
2013-02-13 19:21:00,38.0,37.0,-100.00,SW,230,10.0,13.0,94,0.00,,,0.00,,2013-02-14 01:21:00,
2013-02-13 19:31:00,38.0,36.0,-100.00,WSW,245,7.0,14.0,92,0.00,,,0.00,,2013-02-14 01:31:00,
2013-02-13 19:41:00,37.0,36.0,-100.00,SW,235,6.0,9.0,94,0.00,,,0.00,,2013-02-14 01:41:00,
2013-02-13 19:51:00,37.0,36.0,-100.00,SW,225,6.0,9.0,96,0.00,,,0.00,,2013-02-14 01:51:00,
2013-02-13 20:01:00,36.0,36.0,-100.00,SW,225,6.0,8.0,98,0.00,,,0.00,,2013-02-14 02:01:00,
2013-02-13 20:11:00,37.0,36.0,-100.00,SW,225,7.0,9.0,96,0.00,,,0.00,,2013-02-14 02:11:00,
2013-02-13 20:21:00,37.0,36.0,-100.00,SW,220,8.0,11.0,92,0.00,,,0.00,,2013-02-14 02:21:00,
2013-02-13 20:31:00,38.0,36.0,-100.00,SW,220,9.0,12.0,91,0.00,,,0.00,,2013-02-14 02:31:00,
2013-02-13 20:41:00,38.0,36.0,-100.00,SW,220,9.0,12.0,91,0.00,,,0.00,,2013-02-14 02:41:00,
2013-02-13 20:51:00,38.0,36.0,-100.00,SW,220,9.0,12.0,91,0.00,,,0.00,,2013-02-14 02:51:00,
2013-02-13 21:02:00,38.0,36.0,-100.00,SW,235,9.0,12.0,89,0.00,,,0.00,,2013-02-14 03:02:00,
2013-02-13 21:11:00,38.0,36.0,-100.00,SW,235,9.0,14.0,88,0.00,,,0.00,,2013-02-14 03:11:00,
2013-02-13 21:21:00,38.0,36.0,-100.00,SW,235,10.0,14.0,90,0.00,,,0.00,,2013-02-14 03:21:00,
2013-02-13 21:31:00,37.0,36.0,-100.00,SW,230,10.0,14.0,90,0.00,,,0.00,,2013-02-14 03:31:00,
2013-02-13 21:42:00,37.0,36.0,-100.00,WSW,240,10.0,14.0,90,0.00,,,0.00,,2013-02-14 03:42:00,
2013-02-13 21:51:00,37.0,36.0,-100.00,WSW,245,10.0,16.0,90,0.00,,,0.00,,2013-02-14 03:51:00,
2013-02-13 22:01:00,37.0,36.0,-100.00,WSW,255,11.0,15.0,91,0.00,,,0.00,,2013-02-14 04:01:00,
2013-02-13 22:11:00,36.0,36.0,-100.00,WSW,245,10.0,14.0,93,0.00,,,0.00,,2013-02-14 04:11:00,
2013-02-13 22:21:00,36.0,36.0,-100.00,West,260,11.0,14.0,93,0.00,,,0.00,,2013-02-14 04:21:00,
2013-02-13 22:31:00,36.0,36.0,-100.00,WSW,255,9.0,14.0,93,0.00,,,0.00,,2013-02-14 04:31:00,
2013-02-13 22:41:00,36.0,36.0,-100.00,WSW,255,10.0,16.0,93,0.00,,,0.00,,2013-02-14 04:41:00,
2013-02-13 22:51:00,36.0,36.0,-100.00,WSW,255,12.0,16.0,93,0.00,,,0.00,,2013-02-14 04:51:00,
2013-02-13 23:02:00,37.0,36.0,-100.00,WSW,250,12.0,19.0,92,0.00,,,0.00,,2013-02-14 05:02:00,
2013-02-13 23:11:00,37.0,34.0,-100.00,West,265,14.0,20.0,89,0.00,,,0.00,,2013-02-14 05:11:00,
2013-02-13 23:21:00,37.0,34.0,-100.00,West,275,12.0,20.0,90,0.00,,,0.00,,2013-02-14 05:21:00,
2013-02-13 23:31:00,37.0,34.0,-100.00,West,270,11.0,19.0,91,0.00,,,0.00,,2013-02-14 05:31:00,
2013-02-13 23:41:00,37.0,34.0,-100.00,West,280,17.0,21.0,92,0.00,,,0.00,,2013-02-14 05:41:00,
2013-02-13 23:52:00,36.0,36.0,-100.00,West,275,11.0,19.0,95,0.00,,,0.00,,2013-02-14 05:52:00,